LRSB - SIBIU

Compiled: 11:38:08 on 21/04/2018

Latest METAR/SPECI Reports

METAR LRSB 211130Z 01006KT 340V050 CAVOK 20/03 Q1021=

Previous reports

METAR LRSB 211100Z 05006KT CAVOK 20/04 Q1021=
METAR LRSB 211030Z 31006KT 270V360 CAVOK 20/03 Q1022=
METAR LRSB 211000Z 01005KT 320V060 CAVOK 19/04 Q1022=
METAR LRSB 210930Z 03004KT 350V090 CAVOK 18/05 Q1022=

Latest TAF report

TAF LRSB 211100Z 2112/2212 35007KT CAVOK=

Valid WARNINGS

No valid warnings for LRSB